Time;durP1;ratioP1;P1;durP2;ratioP2;P2;SDS_P1;SDS_P2;PMS_P1;PMS_P2;Temp;Humidity;BMP_temperature;BMP_pressure;BME280_temperature;BME280_humidity;BME280_pressure;Samples;Min_cycle;Max_cycle;Signal;HPM_P1;HPM_P2
2023/10/12 00:00:24;;;;;;;4.60;3.20;;;;;;;;;;6203744;23;20719;-89
2023/10/12 00:02:53;;;;;;;6.60;2.70;;;;;;;;;;6209872;23;20373;-90
2023/10/12 00:05:19;;;;;;;6.60;3.20;;;;;;;;;;6202327;23;20469;-89
2023/10/12 00:07:49;;;;;;;5.53;3.43;;;;;;;;;;6203685;23;20422;-89
2023/10/12 00:12:44;;;;;;;5.63;3.73;;;;;;;;;;6231253;23;20378;-89
2023/10/12 00:17:47;;;;;;;4.93;3.90;;;;;;;;;;6233586;23;20394;-90
2023/10/12 00:23:09;;;;;;;4.43;3.83;;;;;;;;;;6259867;22;20366;-89
2023/10/12 00:25:41;;;;;;;4.80;3.30;;;;;;;;;;6204978;23;20449;-90
2023/10/12 00:28:07;;;;;;;3.03;2.50;;;;;;;;;;6204838;23;20521;-88
2023/10/12 00:30:33;;;;;;;11.33;4.23;;;;;;;;;;6201856;23;20394;-89
2023/10/12 00:32:59;;;;;;;5.90;3.17;;;;;;;;;;6232338;22;20379;-89
2023/10/12 00:35:25;;;;;;;5.90;3.10;;;;;;;;;;6203525;23;20405;-89
2023/10/12 00:37:55;;;;;;;5.33;3.10;;;;;;;;;;6207699;23;20382;-90
2023/10/12 00:40:31;;;;;;;11.43;4.07;;;;;;;;;;6201560;23;20378;-88
2023/10/12 00:43:00;;;;;;;6.10;3.47;;;;;;;;;;6203688;23;20370;-89
2023/10/12 00:45:29;;;;;;;8.90;3.63;;;;;;;;;;6202453;23;20392;-89
2023/10/12 00:48:07;;;;;;;5.70;3.80;;;;;;;;;;6227684;23;20433;-90
2023/10/12 00:50:36;;;;;;;4.07;3.03;;;;;;;;;;6203682;23;20390;-90
2023/10/12 00:55:46;;;;;;;6.23;3.70;;;;;;;;;;6231670;23;20445;-90
2023/10/12 00:58:15;;;;;;;15.50;5.13;;;;;;;;;;6205068;23;20358;-90
2023/10/12 01:00:54;;;;;;;6.30;3.57;;;;;;;;;;6204388;23;20501;-88
2023/10/12 01:06:12;;;;;;;7.60;3.53;;;;;;;;;;6227499;23;20339;-89
2023/10/12 01:08:47;;;;;;;3.67;2.80;;;;;;;;;;6234192;23;20454;-89
2023/10/12 01:11:27;;;;;;;6.20;3.57;;;;;;;;;;6203603;23;20370;-89
2023/10/12 01:14:09;;;;;;;4.40;3.83;;;;;;;;;;6206897;23;20370;-89
2023/10/12 01:19:10;;;;;;;5.03;3.33;;;;;;;;;;6228939;23;20473;-89
2023/10/12 01:21:36;;;;;;;4.50;3.10;;;;;;;;;;6205510;23;20445;-89
2023/10/12 01:24:04;;;;;;;4.67;2.93;;;;;;;;;;6200871;23;20449;-89
2023/10/12 01:26:34;;;;;;;6.40;3.27;;;;;;;;;;6208161;22;20396;-89
2023/10/12 01:29:01;;;;;;;9.40;3.90;;;;;;;;;;6202269;22;20490;-89
2023/10/12 01:31:28;;;;;;;7.20;3.63;;;;;;;;;;6202162;23;20382;-89
2023/10/12 01:33:55;;;;;;;10.07;3.70;;;;;;;;;;6203167;23;20386;-89
2023/10/12 01:36:22;;;;;;;6.40;3.80;;;;;;;;;;6225569;23;20362;-89
2023/10/12 01:38:48;;;;;;;6.83;3.50;;;;;;;;;;6228339;23;20386;-89
2023/10/12 01:41:24;;;;;;;5.63;3.57;;;;;;;;;;6203272;23;20382;-89
2023/10/12 01:43:50;;;;;;;3.70;3.30;;;;;;;;;;6205765;23;20464;-90
2023/10/12 01:46:21;;;;;;;7.03;3.37;;;;;;;;;;6204094;23;20385;-89
2023/10/12 01:48:55;;;;;;;6.57;3.70;;;;;;;;;;6255013;23;20385;-89
2023/10/12 01:51:28;;;;;;;11.40;4.13;;;;;;;;;;6204201;23;20354;-89
2023/10/12 01:53:55;;;;;;;9.23;2.97;;;;;;;;;;6204249;23;20405;-89
2023/10/12 01:56:29;;;;;;;7.50;3.53;;;;;;;;;;6203624;23;20383;-88
2023/10/12 01:58:55;;;;;;;7.60;3.67;;;;;;;;;;6158779;23;20996;-89
2023/10/12 02:01:24;;;;;;;10.73;4.70;;;;;;;;;;6201400;23;20489;-89
2023/10/12 02:03:54;;;;;;;4.80;3.80;;;;;;;;;;6203499;23;20490;-89
2023/10/12 02:06:24;;;;;;;4.23;3.83;;;;;;;;;;6205369;23;20378;-89
2023/10/12 02:08:52;;;;;;;6.00;3.73;;;;;;;;;;6179808;23;20418;-88
2023/10/12 02:11:42;;;;;;;6.60;3.80;;;;;;;;;;6206174;23;20386;-89
2023/10/12 02:14:11;;;;;;;4.67;3.77;;;;;;;;;;6187305;23;20382;-89
2023/10/12 02:16:38;;;;;;;5.67;3.20;;;;;;;;;;6206227;23;20401;-89
2023/10/12 02:19:04;;;;;;;14.17;3.90;;;;;;;;;;6228530;23;20524;-88
2023/10/12 02:21:33;;;;;;;5.50;3.80;;;;;;;;;;6205120;23;20417;-89
2023/10/12 02:24:21;;;;;;;10.07;4.20;;;;;;;;;;6256193;22;20478;-88
2023/10/12 02:29:17;;;;;;;6.73;4.27;;;;;;;;;;6235182;23;20418;-89
2023/10/12 02:34:16;;;;;;;8.33;3.50;;;;;;;;;;6235455;23;20350;-89
2023/10/12 02:36:59;;;;;;;6.83;3.77;;;;;;;;;;6203943;23;20745;-89
2023/10/12 02:39:26;;;;;;;5.17;3.20;;;;;;;;;;6211261;23;20374;-88
2023/10/12 02:42:00;;;;;;;7.03;3.60;;;;;;;;;;6204323;23;20386;-89
2023/10/12 02:44:33;;;;;;;3.93;3.53;;;;;;;;;;6235505;22;20450;-89
2023/10/12 02:47:11;;;;;;;4.47;3.47;;;;;;;;;;6231996;23;20350;-88
2023/10/12 02:49:39;;;;;;;5.20;3.60;;;;;;;;;;6210472;23;20435;-88
2023/10/12 02:52:08;;;;;;;5.60;3.70;;;;;;;;;;6205205;23;20378;-89
2023/10/12 02:54:50;;;;;;;6.00;3.50;;;;;;;;;;6231033;22;20374;-89
2023/10/12 02:57:24;;;;;;;6.73;4.17;;;;;;;;;;6205661;23;20381;-88
2023/10/12 02:59:57;;;;;;;7.50;3.70;;;;;;;;;;6234990;22;20489;-89
2023/10/12 03:02:32;;;;;;;4.60;3.57;;;;;;;;;;6205973;23;20374;-89
2023/10/12 03:05:07;;;;;;;5.10;3.97;;;;;;;;;;6202603;23;20398;-89
2023/10/12 03:07:38;;;;;;;6.60;3.60;;;;;;;;;;6229292;23;20796;-89
2023/10/12 03:10:23;;;;;;;5.80;3.43;;;;;;;;;;6204527;23;20878;-89
2023/10/12 03:12:54;;;;;;;5.23;3.40;;;;;;;;;;6137938;23;20389;-89
2023/10/12 03:15:55;;;;;;;4.60;4.00;;;;;;;;;;6113469;23;20382;-89
2023/10/12 03:18:26;;;;;;;5.20;3.47;;;;;;;;;;6136693;23;20385;-90
2023/10/12 03:21:11;;;;;;;5.53;3.60;;;;;;;;;;6118430;23;20361;-89
2023/10/12 03:23:38;;;;;;;7.90;3.80;;;;;;;;;;6115303;23;20385;-90
2023/10/12 03:26:06;;;;;;;3.33;2.80;;;;;;;;;;6115159;23;20381;-89
2023/10/12 03:31:26;;;;;;;5.00;4.00;;;;;;;;;;6126338;23;20361;-88
2023/10/12 03:33:55;;;;;;;4.27;3.60;;;;;;;;;;6114322;23;20449;-89
2023/10/12 03:36:24;;;;;;;6.10;3.50;;;;;;;;;;6113156;23;20361;-89
2023/10/12 03:44:36;;;;;;;15.50;3.60;;;;;;;;;;6213614;23;20378;-90
2023/10/12 03:47:05;;;;;;;5.27;3.67;;;;;;;;;;6232612;23;20366;-88
2023/10/12 03:49:45;;;;;;;5.93;3.97;;;;;;;;;;6226458;23;20374;-89
2023/10/12 03:52:16;;;;;;;6.37;3.50;;;;;;;;;;6207217;23;20420;-89
2023/10/12 03:54:55;;;;;;;7.63;3.80;;;;;;;;;;6203722;23;20378;-89
2023/10/12 03:57:27;;;;;;;8.43;3.60;;;;;;;;;;6209564;23;20389;-89
2023/10/12 04:00:32;;;;;;;9.00;3.80;;;;;;;;;;6203322;23;20409;-89
2023/10/12 04:08:13;;;;;;;5.23;3.90;;;;;;;;;;6233304;23;20889;-89
2023/10/12 04:21:17;;;;;;;9.70;3.53;;;;;;;;;;6110302;23;20394;-88
2023/10/12 04:29:10;;;;;;;5.37;4.00;;;;;;;;;;6105077;23;20461;-90
2023/10/12 04:34:10;;;;;;;7.47;3.73;;;;;;;;;;6101400;23;20374;-90
2023/10/12 04:36:48;;;;;;;7.33;3.67;;;;;;;;;;6107006;23;20450;-89
2023/10/12 04:39:24;;;;;;;10.40;4.20;;;;;;;;;;6102523;23;20422;-89
2023/10/12 04:44:39;;;;;;;7.37;3.60;;;;;;;;;;6135395;23;20381;-92
2023/10/12 04:47:06;;;;;;;6.40;3.33;;;;;;;;;;6140184;23;20457;-93
2023/10/12 04:57:26;;;;;;;6.80;3.30;;;;;;;;;;6238156;22;20390;-93
2023/10/12 05:07:53;;;;;;;5.60;3.70;;;;;;;;;;6237287;23;20421;-93
2023/10/12 05:10:26;;;;;;;5.97;3.77;;;;;;;;;;6211603;22;20378;-94
2023/10/12 05:12:52;;;;;;;4.63;3.40;;;;;;;;;;6210475;23;20360;-93
2023/10/12 05:15:20;;;;;;;5.53;3.57;;;;;;;;;;6209490;23;20409;-90
2023/10/12 05:17:46;;;;;;;11.20;3.27;;;;;;;;;;6208032;22;20730;-91
2023/10/12 05:20:21;;;;;;;6.97;4.30;;;;;;;;;;6208585;23;20408;-91
2023/10/12 05:22:48;;;;;;;8.53;3.87;;;;;;;;;;6209543;23;20382;-91
2023/10/12 05:25:16;;;;;;;5.97;3.33;;;;;;;;;;6209285;23;20431;-92
2023/10/12 05:28:05;;;;;;;7.73;3.93;;;;;;;;;;6208611;23;20435;-92
2023/10/12 05:30:31;;;;;;;8.00;3.63;;;;;;;;;;6242499;23;20378;-92
2023/10/12 05:33:04;;;;;;;12.73;4.77;;;;;;;;;;6206606;23;20407;-92
2023/10/12 05:35:50;;;;;;;6.70;3.47;;;;;;;;;;6210583;23;20915;-92
2023/10/12 05:38:17;;;;;;;6.30;3.80;;;;;;;;;;6210437;23;20573;-92
2023/10/12 05:40:53;;;;;;;7.67;3.87;;;;;;;;;;6214105;23;20402;-93
2023/10/12 05:43:22;;;;;;;6.00;3.23;;;;;;;;;;6210071;23;20384;-91
2023/10/12 05:45:48;;;;;;;8.63;3.30;;;;;;;;;;6170017;23;20395;-92
2023/10/12 05:48:19;;;;;;;5.83;3.53;;;;;;;;;;6146308;23;20518;-92
2023/10/12 05:50:49;;;;;;;5.53;3.90;;;;;;;;;;6147998;23;20395;-92
2023/10/12 05:53:16;;;;;;;7.33;5.30;;;;;;;;;;6148888;23;20468;-93
2023/10/12 05:55:42;;;;;;;7.20;3.80;;;;;;;;;;6145924;23;20402;-92
2023/10/12 05:58:12;;;;;;;7.93;4.30;;;;;;;;;;6146890;23;20402;-92
2023/10/12 06:00:56;;;;;;;6.53;4.20;;;;;;;;;;6146344;23;20421;-91
2023/10/12 06:03:26;;;;;;;6.43;4.40;;;;;;;;;;6174930;23;20376;-93
2023/10/12 06:05:52;;;;;;;5.20;3.83;;;;;;;;;;6146548;23;20388;-93
2023/10/12 06:08:18;;;;;;;7.63;3.53;;;;;;;;;;6150212;23;20423;-93
2023/10/12 06:10:46;;;;;;;8.30;4.53;;;;;;;;;;6146515;23;20470;-92
2023/10/12 06:13:15;;;;;;;12.17;4.00;;;;;;;;;;6153343;23;20467;-92
2023/10/12 06:15:42;;;;;;;6.53;3.43;;;;;;;;;;6148896;23;20499;-92
2023/10/12 06:18:21;;;;;;;4.80;3.47;;;;;;;;;;6206863;23;20732;-92
2023/10/12 06:20:58;;;;;;;9.60;3.70;;;;;;;;;;6208600;23;20386;-91
2023/10/12 06:23:28;;;;;;;4.90;3.77;;;;;;;;;;6208966;23;20811;-91
2023/10/12 06:25:55;;;;;;;7.60;3.80;;;;;;;;;;6206432;23;20386;-92
2023/10/12 06:28:21;;;;;;;10.60;3.87;;;;;;;;;;6206398;23;20417;-92
2023/10/12 06:30:47;;;;;;;9.90;4.13;;;;;;;;;;6204726;23;20406;-92
2023/10/12 06:33:17;;;;;;;5.33;4.03;;;;;;;;;;6206104;23;20683;-92
2023/10/12 06:35:59;;;;;;;9.13;4.17;;;;;;;;;;6210629;23;20398;-92
2023/10/12 06:38:47;;;;;;;5.07;2.87;;;;;;;;;;6206250;23;20374;-92
2023/10/12 06:41:58;;;;;;;11.37;4.20;;;;;;;;;;6231127;23;20389;-91
2023/10/12 06:44:27;;;;;;;5.73;3.87;;;;;;;;;;6245441;22;20402;-93
2023/10/12 06:47:28;;;;;;;6.00;3.23;;;;;;;;;;6163341;23;20434;-93
2023/10/12 06:49:51;;;;;;;11.93;6.60;;;;;;;;;;6236676;23;20386;-93
2023/10/12 06:52:19;;;;;;;5.00;4.10;;;;;;;;;;6204445;23;20390;-92
2023/10/12 06:54:54;;;;;;;9.67;6.87;;;;;;;;;;6208684;23;20382;-92
2023/10/12 07:02:34;;;;;;;7.23;4.60;;;;;;;;;;6231648;23;20449;-92
2023/10/12 07:05:02;;;;;;;6.80;4.13;;;;;;;;;;6211467;23;20390;-93
2023/10/12 07:07:29;;;;;;;9.60;4.47;;;;;;;;;;6204967;23;20437;-92
2023/10/12 07:12:41;;;;;;;10.70;4.20;;;;;;;;;;6233039;23;20358;-92
2023/10/12 07:15:11;;;;;;;10.33;4.63;;;;;;;;;;6238396;22;20397;-91
2023/10/12 07:17:37;;;;;;;7.83;3.70;;;;;;;;;;6205141;23;20394;-92
2023/10/12 07:20:25;;;;;;;9.57;4.63;;;;;;;;;;6207669;23;20374;-92
2023/10/12 07:22:51;;;;;;;6.73;3.90;;;;;;;;;;6139507;23;20411;-92
2023/10/12 07:25:22;;;;;;;6.33;3.53;;;;;;;;;;6117760;23;20431;-93
2023/10/12 07:28:00;;;;;;;5.13;3.70;;;;;;;;;;6116028;23;20439;-92
2023/10/12 07:30:36;;;;;;;6.63;4.07;;;;;;;;;;6144910;23;20405;-92
2023/10/12 07:33:05;;;;;;;5.73;4.00;;;;;;;;;;6117039;23;20365;-92
2023/10/12 07:35:34;;;;;;;7.43;4.70;;;;;;;;;;6117723;23;20388;-92
2023/10/12 07:38:01;;;;;;;7.67;4.07;;;;;;;;;;6115299;23;20396;-92
2023/10/12 07:40:34;;;;;;;4.60;3.70;;;;;;;;;;6052467;23;20371;-92
2023/10/12 07:43:05;;;;;;;6.30;4.60;;;;;;;;;;6050738;23;21112;-92
2023/10/12 07:45:38;;;;;;;8.47;5.37;;;;;;;;;;6059336;23;20383;-92
2023/10/12 07:48:06;;;;;;;7.73;4.50;;;;;;;;;;6050985;23;21006;-92
2023/10/12 07:50:37;;;;;;;5.60;4.03;;;;;;;;;;6053423;23;20430;-92
2023/10/12 07:53:08;;;;;;;9.63;5.13;;;;;;;;;;6081452;23;20428;-92
2023/10/12 07:55:41;;;;;;;7.70;4.80;;;;;;;;;;6165830;23;20377;-92
2023/10/12 07:58:12;;;;;;;10.90;5.63;;;;;;;;;;6161342;23;20385;-92
2023/10/12 08:00:41;;;;;;;11.00;4.23;;;;;;;;;;6164335;23;20440;-91
2023/10/12 08:03:18;;;;;;;6.30;5.03;;;;;;;;;;6162745;23;21317;-92
2023/10/12 08:05:46;;;;;;;4.40;3.93;;;;;;;;;;6164099;23;20717;-92
2023/10/12 08:08:33;;;;;;;5.73;4.57;;;;;;;;;;6162535;23;20443;-92
2023/10/12 08:11:08;;;;;;;6.60;4.67;;;;;;;;;;6165803;23;20400;-92
2023/10/12 08:13:39;;;;;;;7.27;4.23;;;;;;;;;;6162833;23;20448;-91
2023/10/12 08:16:05;;;;;;;9.27;4.63;;;;;;;;;;6170191;23;20981;-92
2023/10/12 08:21:31;;;;;;;11.80;3.77;;;;;;;;;;6236966;23;21032;-93
2023/10/12 08:24:02;;;;;;;8.10;4.90;;;;;;;;;;6207898;23;20386;-92
2023/10/12 08:26:35;;;;;;;6.53;3.50;;;;;;;;;;6230752;23;20366;-93
2023/10/12 08:31:48;;;;;;;8.33;4.70;;;;;;;;;;6236130;23;20366;-92
2023/10/12 08:39:38;;;;;;;6.03;3.60;;;;;;;;;;6230243;22;20391;-92
2023/10/12 08:44:52;;;;;;;9.20;5.00;;;;;;;;;;6233435;23;20359;-92
2023/10/12 08:50:01;;;;;;;8.03;4.00;;;;;;;;;;6233269;23;20354;-92
2023/10/12 08:52:31;;;;;;;10.73;4.77;;;;;;;;;;6229826;23;20390;-92
2023/10/12 08:55:11;;;;;;;10.23;4.87;;;;;;;;;;6205982;23;20379;-92
2023/10/12 08:57:38;;;;;;;8.50;4.10;;;;;;;;;;6207137;23;20386;-92
2023/10/12 09:03:14;;;;;;;6.40;3.67;;;;;;;;;;6087340;23;20962;-93
2023/10/12 09:05:40;;;;;;;6.13;4.57;;;;;;;;;;6080130;23;20391;-92
2023/10/12 09:13:20;;;;;;;8.77;5.03;;;;;;;;;;6104453;23;20382;-93
2023/10/12 09:15:51;;;;;;;8.80;4.90;;;;;;;;;;6086352;23;20398;-92
2023/10/12 09:18:20;;;;;;;7.00;4.17;;;;;;;;;;6083671;23;20378;-92
2023/10/12 09:23:31;;;;;;;9.93;4.53;;;;;;;;;;6108892;23;20379;-92
2023/10/12 09:36:29;;;;;;;5.50;3.97;;;;;;;;;;6103733;23;20379;-92
2023/10/12 09:39:00;;;;;;;7.10;4.00;;;;;;;;;;6169211;23;20366;-93
2023/10/12 09:41:32;;;;;;;9.23;4.33;;;;;;;;;;6206041;23;20379;-92
2023/10/12 09:44:00;;;;;;;9.20;4.63;;;;;;;;;;6202107;23;20379;-92
2023/10/12 09:46:27;;;;;;;9.80;4.17;;;;;;;;;;6204231;23;20858;-91
2023/10/12 09:49:06;;;;;;;7.80;4.13;;;;;;;;;;6202345;23;20825;-91
2023/10/12 09:51:34;;;;;;;8.33;4.80;;;;;;;;;;6212643;23;20397;-91
2023/10/12 09:54:05;;;;;;;9.37;5.43;;;;;;;;;;6227917;23;20381;-92
2023/10/12 09:56:34;;;;;;;9.60;5.87;;;;;;;;;;6204052;23;20461;-91
2023/10/12 09:59:13;;;;;;;9.17;5.60;;;;;;;;;;6204293;23;20458;-91
2023/10/12 10:07:18;;;;;;;9.17;5.07;;;;;;;;;;6211964;23;20378;-91
2023/10/12 10:09:48;;;;;;;11.40;4.80;;;;;;;;;;6203017;23;20382;-92
2023/10/12 10:12:16;;;;;;;6.23;4.03;;;;;;;;;;6206365;23;20359;-92
2023/10/12 10:14:45;;;;;;;6.20;5.10;;;;;;;;;;6204266;23;20772;-92
2023/10/12 10:17:15;;;;;;;7.13;5.03;;;;;;;;;;6206541;23;20381;-92
2023/10/12 10:19:51;;;;;;;11.50;4.90;;;;;;;;;;6206355;23;20882;-92
2023/10/12 10:22:18;;;;;;;7.73;4.73;;;;;;;;;;6228944;23;20384;-92
2023/10/12 10:24:46;;;;;;;7.90;5.23;;;;;;;;;;6210222;23;20374;-93
2023/10/12 10:27:12;;;;;;;11.23;4.80;;;;;;;;;;6201756;23;20386;-93
2023/10/12 10:29:53;;;;;;;11.40;4.70;;;;;;;;;;6205426;23;20386;-93
2023/10/12 10:32:21;;;;;;;6.43;4.40;;;;;;;;;;6203231;23;20355;-93
2023/10/12 10:34:47;;;;;;;8.40;5.23;;;;;;;;;;6206856;23;20379;-93
2023/10/12 10:37:19;;;;;;;6.00;5.03;;;;;;;;;;6204593;23;20494;-92
2023/10/12 10:39:45;;;;;;;6.50;4.90;;;;;;;;;;6208095;23;20431;-93
2023/10/12 10:42:12;;;;;;;7.43;5.77;;;;;;;;;;6204779;23;20940;-92
2023/10/12 10:44:41;;;;;;;6.73;5.03;;;;;;;;;;6208724;23;20370;-92
2023/10/12 10:47:10;;;;;;;6.60;4.50;;;;;;;;;;6204238;23;20398;-92
2023/10/12 10:49:36;;;;;;;5.73;4.33;;;;;;;;;;6205525;23;20467;-93
2023/10/12 10:54:39;;;;;;;7.90;4.73;;;;;;;;;;6238912;23;20366;-93
2023/10/12 10:57:15;;;;;;;7.63;4.97;;;;;;;;;;6231123;23;20362;-93
2023/10/12 10:59:45;;;;;;;4.60;4.07;;;;;;;;;;6206691;23;20405;-93
2023/10/12 11:02:18;;;;;;;5.03;3.90;;;;;;;;;;6204631;23;21176;-93
2023/10/12 11:04:46;;;;;;;6.10;4.80;;;;;;;;;;6207725;23;20363;-93
2023/10/12 11:07:17;;;;;;;7.50;5.27;;;;;;;;;;6193796;23;20426;-93
2023/10/12 11:12:20;;;;;;;8.67;6.40;;;;;;;;;;6193208;23;20918;-93
2023/10/12 11:14:58;;;;;;;7.80;5.63;;;;;;;;;;6169313;23;20379;-93
2023/10/12 11:17:24;;;;;;;12.67;4.67;;;;;;;;;;6170688;23;20902;-92
2023/10/12 11:19:50;;;;;;;8.10;4.47;;;;;;;;;;6167162;23;20396;-92
2023/10/12 11:22:17;;;;;;;7.40;4.90;;;;;;;;;;6169706;23;20459;-92
2023/10/12 11:24:48;;;;;;;7.27;4.10;;;;;;;;;;6171920;23;20435;-93
2023/10/12 11:27:34;;;;;;;6.67;4.53;;;;;;;;;;6172057;23;20864;-92
2023/10/12 11:30:07;;;;;;;11.87;5.00;;;;;;;;;;6168693;23;20404;-93
2023/10/12 11:32:51;;;;;;;8.50;4.97;;;;;;;;;;6170046;23;20396;-92
2023/10/12 11:35:17;;;;;;;11.80;5.57;;;;;;;;;;6173539;23;20379;-92
2023/10/12 11:37:43;;;;;;;7.33;5.20;;;;;;;;;;6182972;23;20394;-93
2023/10/12 11:40:27;;;;;;;9.87;5.20;;;;;;;;;;6233061;23;20363;-94
2023/10/12 11:42:54;;;;;;;10.47;5.03;;;;;;;;;;6205693;23;20399;-95
2023/10/12 11:45:20;;;;;;;6.10;5.37;;;;;;;;;;6208855;23;20369;-95
2023/10/12 11:47:46;;;;;;;12.67;5.90;;;;;;;;;;6204430;22;20457;-95
2023/10/12 11:50:13;;;;;;;7.17;4.70;;;;;;;;;;6207263;23;20377;-94
2023/10/12 11:52:40;;;;;;;7.60;4.67;;;;;;;;;;6205412;23;20473;-96
2023/10/12 11:55:18;;;;;;;7.03;4.80;;;;;;;;;;6206094;23;20390;-95
2023/10/12 11:57:48;;;;;;;7.93;4.67;;;;;;;;;;6206964;22;20447;-94
2023/10/12 12:00:26;;;;;;;6.10;5.20;;;;;;;;;;6212198;23;20398;-94
2023/10/12 12:02:57;;;;;;;8.40;4.60;;;;;;;;;;6232348;23;20428;-93
2023/10/12 12:05:51;;;;;;;6.87;5.17;;;;;;;;;;6208480;23;20377;-93
2023/10/12 12:08:24;;;;;;;6.53;4.43;;;;;;;;;;6230979;23;20441;-93
2023/10/12 12:10:56;;;;;;;7.23;5.20;;;;;;;;;;6210068;23;20391;-93
2023/10/12 12:13:23;;;;;;;14.40;4.80;;;;;;;;;;6194352;23;20427;-94
2023/10/12 12:15:53;;;;;;;6.90;5.30;;;;;;;;;;6170307;23;20474;-94
2023/10/12 12:18:19;;;;;;;6.90;4.10;;;;;;;;;;6170675;23;20414;-93
2023/10/12 12:20:49;;;;;;;12.77;5.33;;;;;;;;;;6170780;23;20364;-93
2023/10/12 12:23:27;;;;;;;7.33;5.10;;;;;;;;;;6105221;23;20386;-94
2023/10/12 12:26:04;;;;;;;6.20;4.63;;;;;;;;;;6084855;23;20381;-92
2023/10/12 12:28:32;;;;;;;9.27;6.00;;;;;;;;;;6081417;23;20438;-94
2023/10/12 12:31:04;;;;;;;9.80;5.47;;;;;;;;;;6086446;23;20446;-93
2023/10/12 12:33:30;;;;;;;8.50;5.33;;;;;;;;;;6082862;23;20516;-95
2023/10/12 12:35:59;;;;;;;7.20;4.20;;;;;;;;;;6081903;23;20386;-94
2023/10/12 12:41:18;;;;;;;10.13;5.50;;;;;;;;;;6085479;23;20358;-93
2023/10/12 12:43:44;;;;;;;15.23;5.23;;;;;;;;;;6095390;23;20393;-93
2023/10/12 12:46:11;;;;;;;8.10;6.00;;;;;;;;;;6118094;23;20377;-93
2023/10/12 12:48:38;;;;;;;8.33;5.70;;;;;;;;;;6141853;23;20429;-94
2023/10/12 12:51:10;;;;;;;11.67;6.23;;;;;;;;;;6115190;23;20400;-92
2023/10/12 12:53:36;;;;;;;6.93;5.90;;;;;;;;;;6140738;23;20380;-95
2023/10/12 12:56:02;;;;;;;7.57;4.90;;;;;;;;;;6202897;23;20381;-94
2023/10/12 12:58:28;;;;;;;10.70;5.87;;;;;;;;;;6204663;23;20445;-94
2023/10/12 13:00:54;;;;;;;8.70;4.83;;;;;;;;;;6176098;23;20403;-94
2023/10/12 13:03:22;;;;;;;6.60;5.10;;;;;;;;;;6175201;23;20375;-93
2023/10/12 13:05:48;;;;;;;9.23;5.27;;;;;;;;;;6180041;23;20383;-93
2023/10/12 13:08:16;;;;;;;17.20;6.27;;;;;;;;;;6171225;23;20441;-95
2023/10/12 13:10:42;;;;;;;15.43;5.70;;;;;;;;;;6173882;23;20375;-94
2023/10/12 13:13:09;;;;;;;10.87;6.10;;;;;;;;;;6174615;23;20380;-95
2023/10/12 13:15:41;;;;;;;10.57;6.20;;;;;;;;;;6176613;23;20391;-93
2023/10/12 13:18:16;;;;;;;7.50;5.17;;;;;;;;;;6175676;23;20375;-95
2023/10/12 13:20:46;;;;;;;11.30;5.97;;;;;;;;;;6175280;23;20438;-94
2023/10/12 13:23:13;;;;;;;14.13;5.50;;;;;;;;;;6172552;23;20411;-93
2023/10/12 13:25:39;;;;;;;14.20;5.77;;;;;;;;;;6174122;23;20753;-94
2023/10/12 13:28:07;;;;;;;11.67;5.13;;;;;;;;;;6172174;23;20453;-93
2023/10/12 13:30:33;;;;;;;6.20;5.30;;;;;;;;;;6174971;23;20878;-95
2023/10/12 13:33:00;;;;;;;6.33;4.53;;;;;;;;;;6166768;23;20395;-95
2023/10/12 13:35:41;;;;;;;9.43;6.20;;;;;;;;;;6170314;23;20392;-94
2023/10/12 13:38:10;;;;;;;10.87;5.57;;;;;;;;;;6170531;23;20383;-95
2023/10/12 13:40:39;;;;;;;7.43;6.23;;;;;;;;;;6173009;23;20443;-94
2023/10/12 13:43:14;;;;;;;8.73;5.60;;;;;;;;;;6173517;23;20388;-94
2023/10/12 13:45:54;;;;;;;13.93;6.03;;;;;;;;;;6171006;23;20391;-94
2023/10/12 13:48:21;;;;;;;13.53;6.83;;;;;;;;;;6174611;23;20446;-93
2023/10/12 13:51:00;;;;;;;5.97;4.90;;;;;;;;;;6168615;23;20470;-95
2023/10/12 13:53:53;;;;;;;10.77;5.07;;;;;;;;;;6136840;23;20397;-93
2023/10/12 13:56:23;;;;;;;8.43;6.07;;;;;;;;;;6135063;23;20475;-94
2023/10/12 13:58:52;;;;;;;13.80;6.77;;;;;;;;;;6112949;23;20412;-96
2023/10/12 14:01:21;;;;;;;9.17;6.23;;;;;;;;;;6109815;23;20392;-95
2023/10/12 14:04:00;;;;;;;11.00;5.70;;;;;;;;;;6111485;23;20412;-96
2023/10/12 14:06:37;;;;;;;10.80;4.87;;;;;;;;;;6120651;23;20701;-96
2023/10/12 14:09:04;;;;;;;13.27;6.27;;;;;;;;;;6113571;23;20457;-96
2023/10/12 14:11:36;;;;;;;10.73;6.30;;;;;;;;;;6145849;23;20377;-96
2023/10/12 14:14:09;;;;;;;5.93;5.33;;;;;;;;;;6166784;23;20403;-95
2023/10/12 14:16:36;;;;;;;8.03;5.70;;;;;;;;;;6163882;23;20373;-95
2023/10/12 14:19:02;;;;;;;10.77;6.27;;;;;;;;;;6141400;23;20407;-93
2023/10/12 14:21:29;;;;;;;7.37;5.90;;;;;;;;;;6164544;23;20381;-96
2023/10/12 14:24:02;;;;;;;10.73;5.83;;;;;;;;;;6183800;23;20405;-96
2023/10/12 14:26:29;;;;;;;10.03;5.80;;;;;;;;;;6202955;23;20367;-96
2023/10/12 14:28:56;;;;;;;9.70;6.07;;;;;;;;;;6179724;23;20423;-96
2023/10/12 14:31:22;;;;;;;11.47;5.90;;;;;;;;;;6176556;23;20422;-96
2023/10/12 14:33:48;;;;;;;12.47;6.23;;;;;;;;;;6177868;23;20445;-95
2023/10/12 14:36:16;;;;;;;9.40;5.90;;;;;;;;;;6176166;23;20391;-94
2023/10/12 14:38:44;;;;;;;10.70;5.43;;;;;;;;;;6180333;23;20375;-94
2023/10/12 14:41:16;;;;;;;7.60;6.27;;;;;;;;;;6176367;23;20394;-94
2023/10/12 14:43:46;;;;;;;8.67;5.37;;;;;;;;;;6187544;23;20439;-96
2023/10/12 14:46:13;;;;;;;8.77;5.60;;;;;;;;;;6177752;23;20375;-96
2023/10/12 14:48:43;;;;;;;9.63;5.77;;;;;;;;;;6181193;23;20419;-93
2023/10/12 14:51:12;;;;;;;9.60;6.10;;;;;;;;;;6176187;23;20359;-94
2023/10/12 14:53:41;;;;;;;12.20;6.50;;;;;;;;;;6181037;23;20395;-93
2023/10/12 14:56:09;;;;;;;8.60;5.50;;;;;;;;;;6177732;23;20439;-92
2023/10/12 14:58:38;;;;;;;10.53;5.80;;;;;;;;;;6176476;23;20449;-93
2023/10/12 15:01:13;;;;;;;8.53;6.30;;;;;;;;;;6179271;23;20399;-96
2023/10/12 15:03:39;;;;;;;8.57;5.10;;;;;;;;;;6173903;23;20390;-93
2023/10/12 15:06:05;;;;;;;11.13;5.60;;;;;;;;;;6168593;23;20727;-92
2023/10/12 15:08:31;;;;;;;9.00;6.13;;;;;;;;;;6168622;23;20431;-93
2023/10/12 15:11:00;;;;;;;6.77;4.67;;;;;;;;;;6170156;23;20759;-94
2023/10/12 15:13:27;;;;;;;7.33;4.40;;;;;;;;;;6169246;23;21019;-95
2023/10/12 15:15:53;;;;;;;5.60;4.17;;;;;;;;;;6172192;23;20478;-94
2023/10/12 15:18:19;;;;;;;7.77;5.00;;;;;;;;;;6170819;23;20401;-95
2023/10/12 15:20:48;;;;;;;5.90;4.70;;;;;;;;;;6169672;23;20395;-95
2023/10/12 15:23:18;;;;;;;7.33;5.60;;;;;;;;;;6170473;23;20882;-94
2023/10/12 15:25:44;;;;;;;9.53;5.73;;;;;;;;;;6172682;23;20395;-95
2023/10/12 15:28:11;;;;;;;10.87;5.80;;;;;;;;;;6168908;23;20791;-94
2023/10/12 15:30:38;;;;;;;7.10;6.40;;;;;;;;;;6172531;23;20384;-94
2023/10/12 15:33:07;;;;;;;6.50;4.60;;;;;;;;;;6172720;23;20399;-95
2023/10/12 15:35:33;;;;;;;7.10;4.37;;;;;;;;;;6196265;23;20408;-95
2023/10/12 15:37:59;;;;;;;6.87;3.90;;;;;;;;;;6196892;23;20395;-95
2023/10/12 15:40:27;;;;;;;8.73;4.13;;;;;;;;;;6178813;23;20371;-93
2023/10/12 15:42:54;;;;;;;5.63;4.20;;;;;;;;;;6176226;23;20429;-94
2023/10/12 15:45:20;;;;;;;7.30;4.30;;;;;;;;;;6170335;23;20383;-95
2023/10/12 15:47:47;;;;;;;7.10;4.20;;;;;;;;;;6168109;23;20559;-93
2023/10/12 15:50:16;;;;;;;12.40;4.30;;;;;;;;;;6173086;23;20384;-94
2023/10/12 15:52:43;;;;;;;5.40;3.77;;;;;;;;;;6169618;23;20415;-93
2023/10/12 15:55:12;;;;;;;4.30;3.50;;;;;;;;;;6170923;23;20404;-94
2023/10/12 15:57:48;;;;;;;5.07;4.57;;;;;;;;;;6168340;23;20384;-93
2023/10/12 16:00:31;;;;;;;9.47;3.80;;;;;;;;;;6220671;23;20410;-93
2023/10/12 16:03:00;;;;;;;7.37;5.20;;;;;;;;;;6199896;23;20375;-93
2023/10/12 16:05:32;;;;;;;12.27;5.50;;;;;;;;;;6202466;23;20371;-93
2023/10/12 16:07:59;;;;;;;6.13;4.47;;;;;;;;;;6198947;23;20414;-93
2023/10/12 16:10:28;;;;;;;5.63;4.60;;;;;;;;;;6199242;23;20379;-94
2023/10/12 16:12:54;;;;;;;8.10;5.30;;;;;;;;;;6199505;23;20422;-93
2023/10/12 16:15:21;;;;;;;7.07;5.03;;;;;;;;;;6202480;23;20461;-94
2023/10/12 16:17:50;;;;;;;10.23;5.47;;;;;;;;;;6223921;23;20379;-93
2023/10/12 16:20:20;;;;;;;8.27;6.47;;;;;;;;;;6204946;23;20383;-93
2023/10/12 16:22:46;;;;;;;6.77;6.03;;;;;;;;;;6150995;23;20919;-93
2023/10/12 16:25:19;;;;;;;9.07;6.23;;;;;;;;;;6204486;23;20383;-94
2023/10/12 16:27:45;;;;;;;9.27;4.63;;;;;;;;;;6200195;23;20506;-94
2023/10/12 16:30:18;;;;;;;10.23;4.00;;;;;;;;;;6204115;23;20727;-94
2023/10/12 16:32:48;;;;;;;11.10;5.10;;;;;;;;;;6202540;23;20543;-93
2023/10/12 16:35:18;;;;;;;6.80;4.03;;;;;;;;;;6203769;23;20398;-93
2023/10/12 16:37:47;;;;;;;4.33;3.47;;;;;;;;;;6226218;22;20391;-95
2023/10/12 16:40:18;;;;;;;6.10;3.50;;;;;;;;;;6203103;23;20375;-94
2023/10/12 16:42:44;;;;;;;6.67;3.27;;;;;;;;;;6200709;23;20359;-95
2023/10/12 16:45:14;;;;;;;6.50;4.20;;;;;;;;;;6106808;23;20439;-94
2023/10/12 16:47:40;;;;;;;6.60;4.10;;;;;;;;;;6082903;23;20426;-93
2023/10/12 16:50:18;;;;;;;6.57;4.67;;;;;;;;;;6080062;23;20390;-94
2023/10/12 16:52:45;;;;;;;7.73;4.10;;;;;;;;;;6082545;23;20371;-93
2023/10/12 16:55:12;;;;;;;8.33;3.70;;;;;;;;;;6085035;23;20383;-94
2023/10/12 16:57:38;;;;;;;7.23;4.97;;;;;;;;;;6108454;23;20383;-94
2023/10/12 17:00:16;;;;;;;11.40;6.03;;;;;;;;;;6082046;23;20403;-94
2023/10/12 17:02:45;;;;;;;8.63;5.80;;;;;;;;;;6084140;23;20874;-94
2023/10/12 17:05:13;;;;;;;8.07;5.10;;;;;;;;;;6083863;23;20370;-94
2023/10/12 17:07:43;;;;;;;7.17;5.73;;;;;;;;;;6081210;23;20506;-94
2023/10/12 17:10:23;;;;;;;9.20;5.70;;;;;;;;;;6083696;23;20409;-94
2023/10/12 17:12:49;;;;;;;8.23;5.40;;;;;;;;;;6082189;23;20378;-94